Arauca, Colombia

12:11 PM COT on November 27, 2014 (GMT -0500)
Santiago Perez | Change Station
CLOSE
Current Station
Airport
Location: Arauca,
Elevation: 420 ft
Nearby Weather Stations

Elev 420 ft 7.07 °N, 70.74 °W | Updated 11 minutes ago

Scattered Clouds
Scattered Clouds
86 °F
Feels Like 93 °F
N
5
Wind Variable Wind from East

Today
High -- | Low -- °F
--% Chance of Precip.
Yesterday
High -- | Low -- °F
Precip. -- in
5:37 AM 5:23 PM
Waxing Crescent, 31% visible
Pressure 29.90 in
Visibility 6.2 miles
Clouds Few 2300 ft
Scattered Clouds 9000 ft
Heat Index 93 °F
Dew Point 73 °F
Humidity 66%
Rainfall 0.00 in
Snow Depth Not available.
UV 11 out of 12
Pollen Not available.
Air Quality Not available.
Flu Activity Not available.
METAR SKUC 271700Z 10004KT 9999 FEW023 SCT090 30/23 A2990

More Conditions Fewer Conditions

Pressure 29.90 in
Visibility 6.2 miles
Clouds Few 2300 ft
Scattered Clouds 9000 ft
Heat Index 93 °F
Dew Point 73 °F
Humidity 66%
Rainfall 0.00 in
Snow Depth Not available.
UV 11 out of 12
Pollen Not available.
Air Quality Not available.
Flu Activity Not available.
METAR SKUC 271700Z 10004KT 9999 FEW023 SCT090 30/23 A2990

More Conditions Fewer Conditions

10-Day Weather Forecast

Almanac

Astronomy

Nov. 27, 2014 Rise Set
Actual Time
Civil Twilight
Nautical Twilight
Astronomical Twilight
Moon
Length of Visible Light
Length of Day
Tomorrow will be .
, % of the Moon is Illuminated

Today's Extremes

Country Highs Country Lows

Community

WunderPhotos

Upload Photos

1,774,046 photos uploaded!

WunderBlogs® & News

Nearby

Air Quality

  Air Quality AQ Index Pollutant
Not available.

Snow Depth

Station Depth Elevation

Earthquake Activity

City Distance Mag. Time & Date
Minimum magnitude displayed is 2.5.

Coastal Water Temperatures

Place Temperature

Nearby Weather Stations